General Aviation Weather

Text Reports

Enter one or more of the following location identifiers separated by a space:

Zip Code, Four-Character ICAO or Three-Character IATA airport codes.

METAR - Aviation Routine Weather Report
KELZ - Wellsville, New York
Updated at 8:56 AM GMT on December 21, 2014 (3:56 AM EST):
METAR KELZ 210856Z AUTO 00000KT 10SM OVC014 M04/M06 A3020 RMK AO2 SLP257 T10441061 50004
TAF - Terminal Area Forecast
KELZ - Wellsville, New York
Updated at 8:56 AM GMT on December 21, 2014 (3:56 AM EST):
No TAF is currently available for this location.
Decoded:
No decoded TAF is available.
PIREP - Pilot Weather Report
KELZ - Wellsville, New York
Updated at 8:56 AM GMT on December 21, 2014 (3:56 AM EST):
No PIREP is currently available for this location.
AIRMET - Airmens Meteorological Information
KELZ - Wellsville, New York
Updated at 8:56 AM GMT on December 21, 2014 (3:56 AM EST):
No AIRMET is currently available for this location.
SIGMET - Significant Meteorological Information
KELZ - Wellsville, New York
Updated at 8:56 AM GMT on December 21, 2014 (3:56 AM EST):
No SIGMET is currently available for this location.
NOTAM - Notice to Airmen
KELZ - Wellsville, New York
Updated at 8:56 AM GMT on December 21, 2014 (3:56 AM EST):
No NOTAM is currently available for this location.
Forecast Area
KELZ - Wellsville, New York
Updated at 8:56 AM GMT on December 21, 2014 (3:56 AM EST):
No NOTAM is currently available for this location.
Aviation Weather Maps